Time;durP1;ratioP1;P1;durP2;ratioP2;P2;SDS_P1;SDS_P2;PMS_P1;PMS_P2;Temp;Humidity;BMP_temperature;BMP_pressure;BME280_temperature;BME280_humidity;BME280_pressure;Samples;Min_cycle;Max_cycle;Signal;HPM_P1;HPM_P2
2022/06/08 00:01:34;;;;;;;9.75;5.95;;;26.50;93.60;;;;;;5073446;28;20044;-77
2022/06/08 00:04:03;;;;;;;14.05;6.38;;;26.40;93.80;;;;;;5092320;28;20052;-77
2022/06/08 00:06:31;;;;;;;15.98;6.28;;;26.40;93.90;;;;;;5084078;28;20058;-77
2022/06/08 00:08:59;;;;;;;12.00;5.57;;;26.30;93.90;;;;;;5077298;28;20043;-77
2022/06/08 00:11:26;;;;;;;10.02;7.53;;;26.40;93.90;;;;;;5089714;28;20060;-77
2022/06/08 00:13:57;;;;;;;9.10;6.85;;;26.40;94.00;;;;;;5056932;28;20483;-77
2022/06/08 00:16:24;;;;;;;10.20;6.63;;;26.50;94.10;;;;;;5091404;28;20040;-78
2022/06/08 00:18:52;;;;;;;12.63;6.60;;;26.50;94.10;;;;;;5091609;28;20054;-77
2022/06/08 00:21:20;;;;;;;11.68;6.22;;;26.40;94.20;;;;;;5073775;28;20063;-77
2022/06/08 00:23:48;;;;;;;10.90;6.10;;;26.40;94.30;;;;;;5057199;28;20587;-77
2022/06/08 00:26:16;;;;;;;12.20;6.28;;;26.40;94.30;;;;;;5074014;28;20510;-78
2022/06/08 00:28:44;;;;;;;12.15;6.10;;;26.50;94.40;;;;;;5072933;28;20523;-78
2022/06/08 00:31:11;;;;;;;15.68;7.93;;;26.30;94.50;;;;;;5056820;28;20456;-77
2022/06/08 00:33:43;;;;;;;11.82;7.45;;;26.10;94.80;;;;;;5056541;28;20163;-77
2022/06/08 00:36:11;;;;;;;12.80;7.45;;;26.00;95.00;;;;;;5091116;28;20051;-77
2022/06/08 00:38:40;;;;;;;12.85;6.93;;;25.90;95.20;;;;;;5073141;28;20040;-77
2022/06/08 00:41:16;;;;;;;10.98;7.10;;;25.80;95.30;;;;;;5090021;28;20135;-77
2022/06/08 00:43:45;;;;;;;14.68;8.10;;;25.80;95.50;;;;;;5057005;28;20405;-77
2022/06/08 00:46:14;;;;;;;11.68;7.13;;;25.60;95.60;;;;;;5073344;28;20470;-77
2022/06/08 00:48:47;;;;;;;12.85;6.57;;;25.80;95.70;;;;;;5056515;28;20110;-77
2022/06/08 00:51:15;;;;;;;11.20;7.18;;;25.70;95.70;;;;;;5073374;28;20051;-76
2022/06/08 00:53:49;;;;;;;14.55;8.10;;;25.70;95.80;;;;;;5072791;28;20123;-77
2022/06/08 00:56:22;;;;;;;12.18;6.80;;;25.60;96.00;;;;;;5055897;28;20052;-77
2022/06/08 00:58:49;;;;;;;10.38;5.93;;;25.50;96.00;;;;;;5072791;28;20059;-76
2022/06/08 01:01:17;;;;;;;10.25;6.88;;;25.60;96.00;;;;;;5055874;28;20052;-77
2022/06/08 01:03:44;;;;;;;9.82;6.03;;;25.70;95.90;;;;;;5073930;28;20043;-77
2022/06/08 01:06:22;;;;;;;12.35;6.03;;;25.80;95.60;;;;;;5056307;28;20051;-76
2022/06/08 01:08:54;;;;;;;11.52;5.75;;;25.70;95.60;;;;;;5039879;28;20048;-77
2022/06/08 01:11:43;;;;;;;10.98;6.80;;;25.60;95.70;;;;;;5056716;28;21327;-77
2022/06/08 01:14:17;;;;;;;10.77;6.05;;;25.60;95.90;;;;;;5055915;28;20048;-78
2022/06/08 01:17:04;;;;;;;14.38;6.13;;;25.60;95.90;;;;;;5055662;28;20051;-77
2022/06/08 01:19:39;;;;;;;14.07;7.43;;;25.60;95.90;;;;;;5073175;28;20040;-77
2022/06/08 01:22:12;;;;;;;10.95;5.80;;;25.60;95.80;;;;;;5039749;28;20131;-77
2022/06/08 01:24:51;;;;;;;16.67;8.07;;;25.60;95.90;;;;;;5055655;28;20062;-77
2022/06/08 01:27:49;;;;;;;16.45;7.25;;;25.50;96.00;;;;;;5056144;28;20375;-76
2022/06/08 01:30:17;;;;;;;12.68;6.25;;;25.40;96.00;;;;;;5055712;28;20063;-77
2022/06/08 01:33:03;;;;;;;13.82;6.47;;;25.50;96.10;;;;;;5056071;28;20047;-77
2022/06/08 01:36:13;;;;;;;12.50;7.00;;;25.50;96.00;;;;;;5055643;28;20142;-77
2022/06/08 01:38:54;;;;;;;18.48;6.90;;;25.60;95.80;;;;;;5072145;28;20473;-77
2022/06/08 01:41:43;;;;;;;11.15;7.05;;;25.60;95.70;;;;;;5055924;28;20048;-77
2022/06/08 01:44:30;;;;;;;14.63;7.03;;;25.70;95.80;;;;;;5090337;28;20412;-77
2022/06/08 01:47:11;;;;;;;13.82;6.85;;;25.60;95.70;;;;;;5072462;28;20083;-78
2022/06/08 01:49:57;;;;;;;11.80;6.70;;;25.60;95.80;;;;;;5072654;28;20048;-78
2022/06/08 01:52:30;;;;;;;9.98;6.05;;;25.60;95.90;;;;;;5089583;28;20572;-77
2022/06/08 01:55:35;;;;;;;15.68;7.30;;;25.40;96.10;;;;;;5059452;28;20104;-77
2022/06/08 01:58:12;;;;;;;11.32;6.72;;;25.30;96.30;;;;;;5075988;28;20495;-77
2022/06/08 02:00:50;;;;;;;13.63;7.53;;;25.10;96.70;;;;;;5092353;28;20097;-77
2022/06/08 02:03:37;;;;;;;16.73;7.32;;;25.00;96.90;;;;;;5059048;28;20101;-77
2022/06/08 02:06:12;;;;;;;11.05;7.78;;;24.80;97.30;;;;;;5092449;28;20580;-77
2022/06/08 02:09:07;;;;;;;10.77;7.43;;;24.90;97.40;;;;;;5076072;28;20401;-77
2022/06/08 02:11:46;;;;;;;16.55;7.95;;;24.90;97.50;;;;;;5090008;28;20055;-77
2022/06/08 02:14:23;;;;;;;12.45;8.30;;;24.90;97.70;;;;;;5076251;28;20138;-77
2022/06/08 02:17:10;;;;;;;14.00;8.30;;;25.10;97.50;;;;;;5113760;28;20048;-77
2022/06/08 02:20:16;;;;;;;11.25;8.02;;;25.10;97.50;;;;;;5079581;28;20092;-76
2022/06/08 02:22:51;;;;;;;11.02;7.30;;;25.10;97.50;;;;;;5114225;28;20382;-77
2022/06/08 02:25:31;;;;;;;;;;;25.20;97.40;;;;;;5079426;28;20052;-77
2022/06/08 02:28:13;;;;;;;10.05;6.45;;;25.20;97.40;;;;;;5079613;28;19923;-77
2022/06/08 02:30:56;;;;;;;10.23;6.38;;;25.10;97.50;;;;;;5079401;28;20529;-77
2022/06/08 02:36:45;;;;;;;9.10;6.07;;;25.00;97.90;;;;;;5114455;28;20035;-77
2022/06/08 02:39:29;;;;;;;13.48;7.20;;;25.10;97.70;;;;;;5076828;28;20651;-77
2022/06/08 02:42:06;;;;;;;12.00;6.75;;;25.10;97.70;;;;;;5079104;28;20165;-77
2022/06/08 02:44:36;;;;;;;9.15;6.07;;;25.10;97.80;;;;;;5079424;28;20050;-77
2022/06/08 02:47:18;;;;;;;6.97;5.13;;;24.80;98.30;;;;;;5095321;28;20047;-77
2022/06/08 02:49:46;;;;;;;27.95;6.38;;;24.90;98.40;;;;;;5113568;28;20044;-77
2022/06/08 02:52:24;;;;;;;9.90;5.40;;;24.60;98.70;;;;;;5077752;28;20055;-78
2022/06/08 02:54:56;;;;;;;12.07;6.15;;;24.70;99.10;;;;;;5095360;28;20048;-77
2022/06/08 02:58:01;;;;;;;9.55;6.32;;;24.70;99.00;;;;;;5075377;28;20499;-77
2022/06/08 03:00:40;;;;;;;11.52;6.40;;;24.80;99.30;;;;;;5087153;28;20042;-78
2022/06/08 03:03:19;;;;;;;10.73;6.03;;;24.80;99.40;;;;;;5084763;28;20173;-77
2022/06/08 03:05:47;;;;;;;8.50;6.18;;;24.80;99.60;;;;;;5074627;28;20093;-77
2022/06/08 03:08:19;;;;;;;10.50;6.18;;;24.70;99.70;;;;;;5092731;28;20086;-77
2022/06/08 03:10:49;;;;;;;9.55;5.57;;;24.30;99.90;;;;;;5092076;28;20142;-77
2022/06/08 03:13:33;;;;;;;11.52;6.22;;;24.40;99.90;;;;;;5075012;28;20058;-77
2022/06/08 03:16:06;;;;;;;12.65;6.90;;;24.30;99.90;;;;;;5075083;28;20056;-77
2022/06/08 03:18:35;;;;;;;12.88;7.55;;;24.20;99.90;;;;;;5058485;28;20140;-77
2022/06/08 03:21:05;;;;;;;11.00;6.47;;;24.10;99.90;;;;;;5075130;28;20052;-77
2022/06/08 03:23:34;;;;;;;10.00;6.63;;;24.20;99.90;;;;;;5074483;28;20044;-77
2022/06/08 03:26:04;;;;;;;12.90;5.82;;;24.20;99.90;;;;;;5091213;28;20044;-77
2022/06/08 03:28:33;;;;;;;12.15;6.47;;;24.50;99.90;;;;;;5092856;28;20040;-76
2022/06/08 03:31:01;;;;;;;11.25;6.13;;;24.60;99.90;;;;;;5091664;28;20118;-77
2022/06/08 03:33:30;;;;;;;10.90;5.97;;;24.50;99.90;;;;;;5058367;28;20048;-77
2022/06/08 03:36:00;;;;;;;18.95;6.68;;;24.70;99.90;;;;;;5090894;28;20559;-77
2022/06/08 03:38:28;;;;;;;12.85;6.95;;;24.80;99.90;;;;;;5077760;28;20375;-77
2022/06/08 03:40:56;;;;;;;14.00;6.43;;;24.60;99.90;;;;;;5078185;28;20035;-77
2022/06/08 03:43:24;;;;;;;9.88;6.65;;;24.60;99.90;;;;;;5061327;28;20067;-77
2022/06/08 03:45:56;;;;;;;11.75;5.57;;;24.70;99.90;;;;;;5112936;28;20063;-77
2022/06/08 03:48:26;;;;;;;11.52;6.45;;;24.70;99.90;;;;;;5094402;28;20056;-77
2022/06/08 03:50:57;;;;;;;12.13;7.43;;;24.70;99.90;;;;;;5078117;28;20139;-77
2022/06/08 03:53:31;;;;;;;9.27;5.80;;;24.80;99.90;;;;;;5093993;28;20117;-77
2022/06/08 03:56:03;;;;;;;14.40;7.95;;;24.70;99.90;;;;;;5094505;28;20043;-75
2022/06/08 03:58:31;;;;;;;12.07;7.07;;;24.80;99.90;;;;;;5077773;28;20043;-75
2022/06/08 04:01:03;;;;;;;10.80;5.80;;;25.00;99.90;;;;;;5060728;28;20512;-75
2022/06/08 04:03:32;;;;;;;12.20;6.38;;;25.00;99.90;;;;;;5077074;28;20043;-75
2022/06/08 04:06:00;;;;;;;11.25;6.80;;;25.00;99.90;;;;;;5077591;28;20408;-75
2022/06/08 04:08:33;;;;;;;9.68;5.43;;;24.90;99.90;;;;;;5077325;28;20048;-77
2022/06/08 04:11:01;;;;;;;11.95;5.80;;;24.90;99.90;;;;;;5093819;28;20055;-77
2022/06/08 04:13:29;;;;;;;20.67;7.22;;;24.90;99.90;;;;;;5061010;28;20055;-77
2022/06/08 04:16:05;;;;;;;15.10;6.33;;;24.90;99.90;;;;;;5077389;28;20044;-77
2022/06/08 04:18:38;;;;;;;13.00;6.18;;;24.80;99.90;;;;;;5077989;28;20597;-77
2022/06/08 04:21:08;;;;;;;10.73;6.07;;;24.70;99.90;;;;;;5077008;28;20066;-77
2022/06/08 04:23:42;;;;;;;9.07;6.25;;;24.80;99.90;;;;;;5093840;28;20047;-77
2022/06/08 04:26:14;;;;;;;8.25;5.70;;;24.90;99.90;;;;;;5061315;28;20039;-77
2022/06/08 04:28:45;;;;;;;13.25;6.50;;;24.90;99.90;;;;;;5060571;28;20393;-77
2022/06/08 04:31:18;;;;;;;12.57;6.20;;;24.90;99.90;;;;;;5077211;28;20047;-77
2022/06/08 04:33:53;;;;;;;11.15;6.13;;;24.80;99.90;;;;;;5073325;28;20047;-77
2022/06/08 04:36:25;;;;;;;11.48;6.97;;;24.80;99.90;;;;;;5089623;28;20051;-77
2022/06/08 04:38:54;;;;;;;12.35;6.40;;;24.70;99.90;;;;;;5072565;28;20055;-77
2022/06/08 04:41:22;;;;;;;16.05;7.35;;;24.70;99.90;;;;;;5073116;28;20441;-77
2022/06/08 04:43:54;;;;;;;16.17;8.45;;;24.70;99.90;;;;;;5040825;28;20048;-77
2022/06/08 04:46:22;;;;;;;16.38;9.52;;;24.60;99.90;;;;;;5073263;28;20047;-77
2022/06/08 04:48:52;;;;;;;20.10;10.82;;;24.80;99.90;;;;;;5073283;28;20047;-77
2022/06/08 04:51:23;;;;;;;17.55;9.98;;;24.50;99.90;;;;;;5089061;28;20093;-77
2022/06/08 04:53:52;;;;;;;14.55;7.47;;;24.50;99.90;;;;;;5072702;28;20962;-77
2022/06/08 04:56:21;;;;;;;16.65;7.95;;;24.60;99.90;;;;;;5056716;28;20494;-78
2022/06/08 04:58:54;;;;;;;14.27;7.80;;;24.60;99.90;;;;;;5073007;28;20067;-78
2022/06/08 05:01:25;;;;;;;17.15;6.78;;;24.50;99.90;;;;;;5089964;28;20083;-77
2022/06/08 05:03:54;;;;;;;17.98;6.55;;;24.40;99.90;;;;;;5056009;28;20044;-77
2022/06/08 05:06:22;;;;;;;11.73;7.32;;;24.40;99.90;;;;;;5072334;28;20048;-77
2022/06/08 05:08:51;;;;;;;10.27;7.18;;;24.40;99.90;;;;;;5056163;28;20109;-77
2022/06/08 05:11:21;;;;;;;11.02;6.88;;;24.40;99.90;;;;;;5072329;28;20150;-77
2022/06/08 05:13:50;;;;;;;11.48;6.47;;;24.40;99.90;;;;;;5039684;28;20122;-77
2022/06/08 05:16:19;;;;;;;11.27;7.50;;;24.40;99.90;;;;;;5072612;28;20048;-77
2022/06/08 05:18:50;;;;;;;14.85;8.07;;;24.40;99.90;;;;;;5072737;28;20051;-77
2022/06/08 05:21:20;;;;;;;13.45;6.60;;;24.40;99.90;;;;;;5071832;28;20046;-77
2022/06/08 05:23:50;;;;;;;14.13;6.90;;;24.40;99.90;;;;;;5072700;28;20055;-77
2022/06/08 05:26:25;;;;;;;14.48;7.28;;;24.20;99.90;;;;;;5072658;28;20048;-77
2022/06/08 05:28:53;;;;;;;15.23;6.68;;;24.30;99.90;;;;;;5089337;28;20043;-77
2022/06/08 05:31:21;;;;;;;16.60;6.43;;;24.30;99.90;;;;;;5057379;28;20770;-77
2022/06/08 05:33:52;;;;;;;12.18;6.60;;;24.30;99.90;;;;;;5089199;28;20501;-77
2022/06/08 05:36:21;;;;;;;15.23;7.55;;;24.30;99.90;;;;;;5089686;28;20067;-76
2022/06/08 05:39:14;;;;;;;13.13;6.53;;;24.30;99.90;;;;;;5072797;28;20082;-78
2022/06/08 05:41:49;;;;;;;15.98;7.03;;;24.30;99.90;;;;;;5072529;28;20052;-77
2022/06/08 05:44:20;;;;;;;14.27;6.95;;;24.40;99.90;;;;;;5055360;28;20466;-78
2022/06/08 05:46:53;;;;;;;11.75;6.13;;;24.40;99.90;;;;;;5072390;28;20052;-77
2022/06/08 05:49:21;;;;;;;11.25;5.88;;;24.40;99.90;;;;;;5088284;28;20056;-78
2022/06/08 05:51:53;;;;;;;16.63;7.03;;;24.50;99.90;;;;;;5088579;28;20506;-77
2022/06/08 05:54:26;;;;;;;16.15;6.25;;;24.40;99.90;;;;;;5088527;28;20040;-78
2022/06/08 05:56:54;;;;;;;16.60;6.32;;;24.60;99.90;;;;;;5090148;28;20052;-78
2022/06/08 05:59:26;;;;;;;13.43;6.43;;;24.60;99.90;;;;;;5072261;28;20067;-78
2022/06/08 06:01:54;;;;;;;11.80;5.68;;;24.60;99.90;;;;;;5071967;28;20051;-75
2022/06/08 06:04:23;;;;;;;11.18;6.75;;;24.60;99.90;;;;;;5088862;28;20462;-77
2022/06/08 06:06:53;;;;;;;26.88;6.43;;;24.50;99.90;;;;;;5089208;28;20050;-76
2022/06/08 06:09:22;;;;;;;12.52;5.95;;;24.50;99.90;;;;;;5090901;28;20044;-76
2022/06/08 06:11:50;;;;;;;9.60;6.05;;;24.50;99.90;;;;;;5072194;28;20055;-76
2022/06/08 06:14:20;;;;;;;11.45;5.35;;;24.50;99.90;;;;;;5089187;28;20097;-77
2022/06/08 06:16:50;;;;;;;13.52;6.45;;;24.60;99.90;;;;;;5089109;28;20043;-76
2022/06/08 06:19:20;;;;;;;14.40;5.85;;;24.60;99.90;;;;;;5092611;28;20064;-76
2022/06/08 06:22:26;;;;;;;14.13;5.60;;;24.70;99.90;;;;;;5042289;28;20048;-77
2022/06/08 06:25:23;;;;;;;12.50;6.40;;;24.70;99.90;;;;;;5075431;28;20048;-77
2022/06/08 06:28:05;;;;;;;9.85;5.60;;;24.90;99.90;;;;;;5092165;28;20043;-77
2022/06/08 06:30:54;;;;;;;11.68;6.30;;;25.00;99.90;;;;;;5082669;28;20832;-76
2022/06/08 06:33:42;;;;;;;13.13;5.72;;;25.30;99.90;;;;;;5075071;28;20378;-75
2022/06/08 06:36:10;;;;;;;19.98;7.45;;;25.40;99.90;;;;;;5090934;28;20067;-75
2022/06/08 06:38:37;;;;;;;10.95;6.13;;;25.60;99.90;;;;;;5074614;28;20044;-75
2022/06/08 06:41:08;;;;;;;11.52;5.97;;;25.70;99.90;;;;;;5074841;28;20133;-76
2022/06/08 06:43:36;;;;;;;12.30;6.32;;;25.60;99.90;;;;;;5075500;28;20445;-76
2022/06/08 06:46:36;;;;;;;13.90;6.63;;;25.30;99.90;;;;;;5047744;28;20071;-76
2022/06/08 06:49:27;;;;;;;12.65;5.53;;;25.20;99.90;;;;;;5091440;28;20051;-76
2022/06/08 06:51:57;;;;;;;14.43;6.28;;;25.40;99.90;;;;;;5075058;28;20138;-76
2022/06/08 06:54:26;;;;;;;10.18;6.35;;;25.50;99.90;;;;;;5074940;28;20146;-76
2022/06/08 06:56:54;;;;;;;15.82;6.10;;;25.70;99.90;;;;;;5075696;28;20044;-76
2022/06/08 06:59:26;;;;;;;11.95;4.95;;;25.80;99.90;;;;;;5075590;28;20485;-76
2022/06/08 07:01:54;;;;;;;14.13;5.40;;;25.90;99.90;;;;;;5093692;28;20039;-76
2022/06/08 07:04:35;;;;;;;9.25;4.80;;;25.90;99.90;;;;;;5078415;28;20059;-76
2022/06/08 07:07:13;;;;;;;10.02;4.70;;;25.80;99.90;;;;;;5078924;28;20855;-76
2022/06/08 07:09:42;;;;;;;11.95;5.07;;;25.90;99.90;;;;;;5096043;28;20075;-77
2022/06/08 07:12:12;;;;;;;8.88;5.07;;;26.10;99.90;;;;;;5078492;28;20386;-76
2022/06/08 07:14:48;;;;;;;7.60;4.63;;;26.50;99.90;;;;;;5078532;28;20054;-76
2022/06/08 07:17:18;;;;;;;10.18;6.32;;;26.60;99.90;;;;;;5058352;28;20071;-77
2022/06/08 07:19:47;;;;;;;17.73;5.43;;;26.50;99.90;;;;;;5058472;28;20047;-77
2022/06/08 07:22:14;;;;;;;8.82;5.15;;;26.60;99.90;;;;;;5075191;28;20066;-77
2022/06/08 07:24:42;;;;;;;9.98;5.15;;;26.40;99.90;;;;;;5074494;28;20044;-78
2022/06/08 07:27:09;;;;;;;11.20;5.75;;;26.40;99.90;;;;;;5092873;28;20072;-78
2022/06/08 07:29:38;;;;;;;9.60;5.38;;;26.60;99.90;;;;;;5091584;28;20048;-77
2022/06/08 07:32:06;;;;;;;12.20;5.63;;;26.80;99.90;;;;;;5075074;28;20054;-77
2022/06/08 07:34:34;;;;;;;8.45;4.50;;;26.90;99.90;;;;;;5092973;28;20071;-77
2022/06/08 07:37:02;;;;;;;11.05;4.25;;;27.00;99.90;;;;;;5058205;28;20143;-77
2022/06/08 07:39:29;;;;;;;11.98;5.35;;;27.00;99.90;;;;;;5074751;28;20043;-77
2022/06/08 07:41:57;;;;;;;10.68;5.43;;;27.00;99.90;;;;;;5057864;28;20082;-77
2022/06/08 07:44:25;;;;;;;11.30;5.80;;;27.00;99.90;;;;;;5057684;28;20040;-77
2022/06/08 07:47:01;;;;;;;19.90;6.38;;;26.70;99.90;;;;;;5074487;28;20056;-77
2022/06/08 07:49:37;;;;;;;12.13;6.22;;;26.70;99.90;;;;;;5057118;28;20109;-77
2022/06/08 07:52:17;;;;;;;14.23;5.43;;;26.80;99.90;;;;;;5057751;28;20052;-77
2022/06/08 07:54:51;;;;;;;8.65;4.65;;;26.70;99.90;;;;;;5058391;28;20051;-79
2022/06/08 07:57:39;;;;;;;9.55;5.80;;;27.10;99.90;;;;;;5075816;28;20379;-79
2022/06/08 08:00:10;;;;;;;;;;;27.50;99.90;;;;;;5058182;28;20146;-77
2022/06/08 08:02:39;;;;;;;8.15;4.10;;;28.00;99.90;;;;;;5091932;28;19924;-77
2022/06/08 08:05:09;;;;;;;9.70;4.97;;;28.20;99.30;;;;;;5074886;28;20050;-77
2022/06/08 08:07:39;;;;;;;8.57;4.57;;;28.20;98.90;;;;;;5098445;28;20440;-77
2022/06/08 08:10:12;;;;;;;8.10;4.57;;;28.20;98.90;;;;;;5077745;28;20405;-78
2022/06/08 08:12:40;;;;;;;9.68;4.53;;;28.40;98.60;;;;;;5076273;28;20398;-78
2022/06/08 08:15:08;;;;;;;11.07;4.43;;;28.50;98.60;;;;;;5094425;28;20044;-77
2022/06/08 08:17:36;;;;;;;10.38;5.28;;;28.40;97.70;;;;;;5111862;28;20070;-78
2022/06/08 08:20:04;;;;;;;10.35;4.28;;;28.40;97.90;;;;;;5076455;28;20050;-78
2022/06/08 08:22:32;;;;;;;7.35;4.40;;;28.60;98.10;;;;;;5076120;28;20051;-77
2022/06/08 08:25:00;;;;;;;10.63;4.10;;;28.60;98.10;;;;;;5111944;28;20051;-78
2022/06/08 08:27:27;;;;;;;12.02;6.70;;;28.90;98.00;;;;;;5093513;28;20074;-77
2022/06/08 08:29:55;;;;;;;7.65;4.25;;;29.20;97.70;;;;;;5094045;28;20082;-78
2022/06/08 08:32:23;;;;;;;12.65;6.65;;;29.40;97.60;;;;;;5112007;28;20425;-78
2022/06/08 08:34:50;;;;;;;9.93;5.30;;;29.40;97.30;;;;;;5059594;28;20237;-78
2022/06/08 08:37:18;;;;;;;12.75;4.85;;;29.20;97.50;;;;;;5112387;28;20051;-77
2022/06/08 08:39:46;;;;;;;8.93;5.03;;;29.20;97.80;;;;;;5094147;28;20080;-77
2022/06/08 08:42:20;;;;;;;10.52;5.28;;;29.00;97.60;;;;;;5112326;28;20051;-78
2022/06/08 08:45:03;;;;;;;12.73;5.30;;;29.20;97.20;;;;;;5076975;28;20057;-77
2022/06/08 08:47:50;;;;;;;10.98;5.45;;;29.30;97.20;;;;;;5076690;28;20048;-78
2022/06/08 08:50:34;;;;;;;7.53;4.22;;;29.00;97.10;;;;;;5076892;28;20397;-77
2022/06/08 08:53:30;;;;;;;11.57;5.03;;;29.00;97.20;;;;;;5093538;28;20044;-78
2022/06/08 08:56:12;;;;;;;10.13;4.47;;;29.20;96.90;;;;;;5090519;28;20073;-78
2022/06/08 08:58:47;;;;;;;10.55;4.75;;;29.40;96.80;;;;;;5060233;28;20369;-78
2022/06/08 09:01:18;;;;;;;9.05;5.10;;;29.50;96.40;;;;;;5094172;28;20350;-77
2022/06/08 09:03:55;;;;;;;12.50;4.85;;;29.50;96.30;;;;;;5076430;28;20771;-78
2022/06/08 09:06:28;;;;;;;6.45;5.00;;;29.30;96.10;;;;;;5093549;28;20067;-78
2022/06/08 09:09:00;;;;;;;9.27;4.55;;;29.30;96.00;;;;;;5093449;28;20051;-77
2022/06/08 09:11:37;;;;;;;10.43;5.22;;;29.40;96.10;;;;;;5092840;28;20596;-78
2022/06/08 09:14:11;;;;;;;9.93;4.80;;;29.70;95.60;;;;;;5059762;28;20074;-77
2022/06/08 09:16:52;;;;;;;9.25;4.38;;;29.60;95.30;;;;;;5059980;28;20143;-78
2022/06/08 09:19:26;;;;;;;7.60;4.45;;;29.40;94.80;;;;;;5059459;28;20136;-77
2022/06/08 09:22:04;;;;;;;14.18;6.35;;;29.40;94.90;;;;;;5093316;28;20051;-78
2022/06/08 09:24:42;;;;;;;8.70;4.60;;;29.60;95.10;;;;;;5076235;28;20141;-78
2022/06/08 09:27:28;;;;;;;7.47;4.88;;;30.00;94.60;;;;;;5076299;28;20052;-77
2022/06/08 09:29:55;;;;;;;7.63;3.97;;;30.20;93.70;;;;;;5093433;28;20062;-77
2022/06/08 09:32:50;;;;;;;7.72;4.10;;;30.20;92.80;;;;;;5076088;28;20138;-78
2022/06/08 09:35:50;;;;;;;9.90;4.55;;;30.70;92.90;;;;;;5076350;28;20058;-78
2022/06/08 09:38:20;;;;;;;8.82;5.18;;;31.00;92.70;;;;;;5022224;28;20742;-78
2022/06/08 09:40:56;;;;;;;6.30;4.25;;;31.10;92.90;;;;;;5093119;28;20051;-78
2022/06/08 09:43:57;;;;;;;10.02;4.70;;;30.90;93.10;;;;;;5092635;28;20142;-78
2022/06/08 09:52:35;;;;;;;9.95;4.97;;;30.30;93.90;;;;;;5078098;28;20044;-79
2022/06/08 09:55:16;;;;;;;7.32;4.32;;;30.30;93.80;;;;;;5090506;28;20063;-78
2022/06/08 09:57:54;;;;;;;9.43;4.82;;;30.20;93.80;;;;;;5056444;28;20052;-78
2022/06/08 10:00:50;;;;;;;9.57;4.95;;;30.10;93.60;;;;;;5072725;28;20051;-79
2022/06/08 10:03:38;;;;;;;;;;;29.90;93.70;;;;;;5072260;28;20046;-75
2022/06/08 10:06:21;;;;;;;8.05;4.38;;;29.90;93.50;;;;;;5071900;28;20026;-78
2022/06/08 10:09:04;;;;;;;9.50;4.38;;;29.90;93.90;;;;;;5038983;28;20040;-78
2022/06/08 10:11:52;;;;;;;9.52;4.03;;;29.70;94.20;;;;;;5072327;28;20268;-78
2022/06/08 10:14:52;;;;;;;7.75;3.50;;;29.70;94.60;;;;;;5072106;28;20051;-79
2022/06/08 10:17:37;;;;;;;10.43;4.53;;;29.50;94.50;;;;;;5090205;28;20046;-78
2022/06/08 10:20:23;;;;;;;7.93;3.90;;;29.50;94.60;;;;;;5072165;28;20040;-78
2022/06/08 10:22:58;;;;;;;6.32;4.45;;;29.70;94.30;;;;;;5055941;28;20044;-77
2022/06/08 10:25:28;;;;;;;9.32;3.97;;;30.20;94.10;;;;;;5088758;28;20075;-78
2022/06/08 10:28:00;;;;;;;6.63;3.60;;;30.50;93.30;;;;;;5055506;28;20051;-78
2022/06/08 10:30:38;;;;;;;12.10;4.18;;;30.50;92.70;;;;;;5072127;28;20040;-78
2022/06/08 10:33:14;;;;;;;8.32;3.97;;;30.50;92.30;;;;;;5072126;28;20051;-75
2022/06/08 10:35:49;;;;;;;6.95;3.63;;;30.40;92.20;;;;;;5055333;28;20544;-78
2022/06/08 10:38:22;;;;;;;5.13;3.23;;;30.50;92.20;;;;;;5058742;28;20047;-80
2022/06/08 10:40:59;;;;;;;6.85;4.05;;;30.50;92.00;;;;;;5075072;28;20048;-77
2022/06/08 10:43:31;;;;;;;6.88;3.83;;;30.70;91.70;;;;;;5093584;28;20078;-79
2022/06/08 10:46:04;;;;;;;12.35;3.72;;;31.00;91.20;;;;;;5075381;28;20398;-77
2022/06/08 10:48:46;;;;;;;5.25;3.40;;;31.10;91.30;;;;;;5107825;28;20043;-76
2022/06/08 10:51:14;;;;;;;10.00;4.85;;;31.10;91.20;;;;;;5078569;28;20048;-78
2022/06/08 10:56:54;;;;;;;4.70;3.65;;;31.30;91.10;;;;;;5078244;28;20054;-77
2022/06/08 10:59:30;;;;;;;7.63;4.07;;;30.90;90.80;;;;;;5095535;28;20036;-77
2022/06/08 11:02:15;;;;;;;9.75;3.08;;;30.90;91.00;;;;;;5078630;28;20126;-77
2022/06/08 11:05:11;;;;;;;5.55;2.38;;;30.30;88.90;;;;;;5112866;28;20058;-76
2022/06/08 11:08:01;;;;;;;6.05;2.00;;;29.20;84.00;;;;;;5095260;28;20042;-77
2022/06/08 11:10:57;;;;;;;6.43;2.53;;;28.60;84.10;;;;;;5112951;28;20047;-76
2022/06/08 11:13:34;;;;;;;4.22;1.88;;;28.10;84.30;;;;;;5094569;28;20139;-77
2022/06/08 11:16:26;;;;;;;4.85;2.00;;;27.60;85.50;;;;;;5093938;28;20047;-77
2022/06/08 11:18:58;;;;;;;6.80;3.22;;;27.20;87.40;;;;;;5111910;28;20409;-76
2022/06/08 11:21:45;;;;;;;4.78;2.40;;;26.90;88.50;;;;;;5095152;28;20655;-76
2022/06/08 11:24:35;;;;;;;8.45;2.40;;;26.60;90.30;;;;;;5111708;28;20134;-77
2022/06/08 11:27:12;;;;;;;3.25;1.90;;;26.30;91.10;;;;;;5112982;28;20154;-76
2022/06/08 11:30:20;;;;;;;5.75;2.50;;;25.90;91.80;;;;;;5094786;28;20142;-75
2022/06/08 11:33:14;;;;;;;4.68;2.47;;;25.50;92.80;;;;;;5090606;28;20071;-76
2022/06/08 11:36:08;;;;;;;3.78;2.25;;;25.00;93.60;;;;;;5070363;28;20062;-78
2022/06/08 11:38:52;;;;;;;5.88;2.60;;;24.80;93.20;;;;;;5111126;28;20050;-76
2022/06/08 11:41:41;;;;;;;4.07;2.22;;;24.80;93.30;;;;;;5094735;28;20047;-76
2022/06/08 11:44:19;;;;;;;4.90;2.42;;;24.60;93.90;;;;;;5106834;28;20040;-77
2022/06/08 11:47:12;;;;;;;4.03;2.58;;;24.50;94.60;;;;;;5073669;28;20048;-78
2022/06/08 11:49:44;;;;;;;4.32;2.85;;;24.20;95.60;;;;;;5072643;28;20142;-76
2022/06/08 11:52:32;;;;;;;5.88;2.85;;;24.30;95.70;;;;;;5059832;28;20048;-77
2022/06/08 11:55:21;;;;;;;5.35;3.15;;;24.20;95.50;;;;;;5091523;28;20048;-76
2022/06/08 11:58:10;;;;;;;5.05;2.42;;;24.10;96.10;;;;;;5091019;28;20436;-77
2022/06/08 12:00:48;;;;;;;6.88;2.60;;;24.20;95.70;;;;;;5074571;28;20149;-76
2022/06/08 12:03:16;;;;;;;3.63;2.00;;;24.00;95.40;;;;;;5057660;28;20052;-76
2022/06/08 12:05:53;;;;;;;6.72;2.83;;;24.00;95.20;;;;;;5091067;28;20044;-77
2022/06/08 12:08:36;;;;;;;72.50;66.72;;;24.00;94.60;;;;;;5059645;28;20524;-77
2022/06/08 12:11:22;;;;;;;15.07;9.93;;;24.10;94.40;;;;;;5076500;28;20044;-77
2022/06/08 12:13:57;;;;;;;15.90;10.23;;;24.30;94.50;;;;;;5058165;28;20051;-77
2022/06/08 12:16:27;;;;;;;8.15;4.28;;;24.50;94.20;;;;;;5073998;28;20404;-78
2022/06/08 12:19:17;;;;;;;9.18;5.57;;;24.90;93.80;;;;;;5057439;28;20074;-80
2022/06/08 12:21:49;;;;;;;165.55;130.30;;;25.20;93.70;;;;;;5056991;28;20233;-77
2022/06/08 12:24:18;;;;;;;1264.20;802.80;;;25.50;93.40;;;;;;5034251;28;20078;-79
2022/06/08 12:26:52;;;;;;;745.63;615.00;;;25.70;93.50;;;;;;5073750;28;20063;-80
2022/06/08 12:29:45;;;;;;;1999.90;999.90;;;25.90;93.10;;;;;;5040765;28;20048;-78
2022/06/08 12:32:21;;;;;;;921.78;721.63;;;26.10;92.20;;;;;;5056987;28;20079;-77
2022/06/08 12:35:08;;;;;;;1999.90;992.78;;;26.30;91.70;;;;;;5076181;28;20044;-79
2022/06/08 12:37:44;;;;;;;901.50;710.38;;;26.30;90.70;;;;;;5066754;28;20453;-79
2022/06/08 12:40:26;;;;;;;225.32;166.57;;;26.30;90.20;;;;;;5082292;28;20077;-78
2022/06/08 12:43:12;;;;;;;65.65;49.60;;;26.40;90.10;;;;;;5102591;28;20051;-78
2022/06/08 12:45:42;;;;;;;;;;;26.50;90.10;;;;;;5070632;28;20503;-77
2022/06/08 12:48:19;;;;;;;1253.65;791.83;;;26.50;89.50;;;;;;5056925;28;19919;-75
2022/06/08 12:50:48;;;;;;;1337.88;858.88;;;26.60;89.10;;;;;;5071324;28;20509;-80
2022/06/08 12:53:16;;;;;;;1378.70;863.03;;;26.60;88.60;;;;;;5093241;28;20126;-79
2022/06/08 12:55:44;;;;;;;500.70;391.17;;;26.70;88.60;;;;;;5088102;28;20434;-79
2022/06/08 12:58:12;;;;;;;83.32;60.67;;;26.90;89.00;;;;;;5070277;28;20051;-77
2022/06/08 13:00:56;;;;;;;7.45;3.92;;;27.00;89.40;;;;;;5075174;28;20039;-78
2022/06/08 13:03:26;;;;;;;7.00;3.53;;;26.70;89.60;;;;;;5076191;28;20055;-79
2022/06/08 13:05:56;;;;;;;6.35;3.70;;;26.60;90.70;;;;;;5056176;28;20056;-79
2022/06/08 13:08:26;;;;;;;4.78;2.53;;;26.70;91.90;;;;;;5089014;28;20079;-79
2022/06/08 13:11:00;;;;;;;7.07;3.58;;;26.70;91.90;;;;;;5072166;28;20036;-77
2022/06/08 13:13:31;;;;;;;9.63;4.13;;;26.30;91.80;;;;;;5070974;28;20067;-78
2022/06/08 13:16:01;;;;;;;7.82;3.50;;;26.10;92.10;;;;;;5075863;28;20424;-79
2022/06/08 13:18:29;;;;;;;4.35;2.20;;;25.90;91.90;;;;;;5072925;28;20071;-77
2022/06/08 13:20:58;;;;;;;13.40;3.75;;;26.00;92.70;;;;;;5106545;28;20039;-76
2022/06/08 13:23:26;;;;;;;6.22;2.75;;;25.70;94.70;;;;;;5089514;28;20040;-77
2022/06/08 13:25:56;;;;;;;5.95;3.30;;;25.50;95.50;;;;;;5087373;28;20055;-77
2022/06/08 13:28:28;;;;;;;8.93;3.40;;;25.40;96.10;;;;;;5058816;28;20055;-77
2022/06/08 13:30:56;;;;;;;8.18;3.40;;;25.20;96.30;;;;;;5069335;28;20062;-77
2022/06/08 13:36:37;;;;;;;10.80;5.13;;;24.90;96.90;;;;;;5082405;28;20052;-76
2022/06/08 13:39:08;;;;;;;5.70;3.90;;;25.00;97.50;;;;;;5085091;28;20064;-79